sensor_id;sensor_type;location;lat;lon;timestamp;P1;durP1;ratioP1;P2;durP2;ratioP2
12958;SDS011;6544;51.666;6.634;2023-04-01T00:01:29;5.03;;;2.10;;
12958;SDS011;6544;51.666;6.634;2023-04-01T00:03:56;6.05;;;2.40;;
12958;SDS011;6544;51.666;6.634;2023-04-01T00:06:24;5.57;;;1.92;;
12958;SDS011;6544;51.666;6.634;2023-04-01T00:08:52;5.25;;;2.00;;
12958;SDS011;6544;51.666;6.634;2023-04-01T00:11:19;3.65;;;1.75;;
12958;SDS011;6544;51.666;6.634;2023-04-01T00:13:46;5.53;;;1.90;;
12958;SDS011;6544;51.666;6.634;2023-04-01T00:16:13;4.50;;;1.75;;
12958;SDS011;6544;51.666;6.634;2023-04-01T00:18:40;3.45;;;1.63;;
12958;SDS011;6544;51.666;6.634;2023-04-01T00:21:08;4.45;;;1.98;;
12958;SDS011;6544;51.666;6.634;2023-04-01T00:23:34;3.72;;;1.95;;
12958;SDS011;6544;51.666;6.634;2023-04-01T00:26:03;3.95;;;1.70;;
12958;SDS011;6544;51.666;6.634;2023-04-01T00:28:30;3.88;;;1.77;;
12958;SDS011;6544;51.666;6.634;2023-04-01T00:30:57;4.10;;;1.67;;
12958;SDS011;6544;51.666;6.634;2023-04-01T00:33:24;4.45;;;1.75;;
12958;SDS011;6544;51.666;6.634;2023-04-01T00:35:52;3.20;;;1.52;;
12958;SDS011;6544;51.666;6.634;2023-04-01T00:38:19;6.20;;;1.63;;
12958;SDS011;6544;51.666;6.634;2023-04-01T00:40:46;3.95;;;1.77;;
12958;SDS011;6544;51.666;6.634;2023-04-01T00:43:16;4.00;;;1.50;;
12958;SDS011;6544;51.666;6.634;2023-04-01T00:45:44;3.60;;;1.60;;
12958;SDS011;6544;51.666;6.634;2023-04-01T00:48:13;4.70;;;1.85;;
12958;SDS011;6544;51.666;6.634;2023-04-01T00:50:44;6.68;;;2.10;;
12958;SDS011;6544;51.666;6.634;2023-04-01T00:53:14;5.85;;;1.70;;
12958;SDS011;6544;51.666;6.634;2023-04-01T00:55:44;5.80;;;1.95;;
12958;SDS011;6544;51.666;6.634;2023-04-01T00:58:18;5.43;;;1.90;;
12958;SDS011;6544;51.666;6.634;2023-04-01T01:00:49;4.07;;;2.00;;
12958;SDS011;6544;51.666;6.634;2023-04-01T01:03:17;4.63;;;1.70;;
12958;SDS011;6544;51.666;6.634;2023-04-01T01:05:48;6.47;;;1.92;;
12958;SDS011;6544;51.666;6.634;2023-04-01T01:08:30;3.03;;;1.40;;
12958;SDS011;6544;51.666;6.634;2023-04-01T01:11:04;4.60;;;1.77;;
12958;SDS011;6544;51.666;6.634;2023-04-01T01:13:36;4.55;;;1.63;;
12958;SDS011;6544;51.666;6.634;2023-04-01T01:16:10;5.15;;;1.50;;
12958;SDS011;6544;51.666;6.634;2023-04-01T01:18:45;5.13;;;1.80;;
12958;SDS011;6544;51.666;6.634;2023-04-01T01:21:30;4.38;;;1.70;;
12958;SDS011;6544;51.666;6.634;2023-04-01T01:24:17;3.47;;;1.88;;
12958;SDS011;6544;51.666;6.634;2023-04-01T01:26:59;5.05;;;1.88;;
12958;SDS011;6544;51.666;6.634;2023-04-01T01:29:44;4.57;;;1.90;;
12958;SDS011;6544;51.666;6.634;2023-04-01T01:32:41;3.38;;;1.80;;
12958;SDS011;6544;51.666;6.634;2023-04-01T01:35:21;3.15;;;1.80;;
12958;SDS011;6544;51.666;6.634;2023-04-01T01:37:53;3.92;;;1.67;;
12958;SDS011;6544;51.666;6.634;2023-04-01T01:40:23;5.85;;;1.55;;
12958;SDS011;6544;51.666;6.634;2023-04-01T01:42:52;5.38;;;1.85;;
12958;SDS011;6544;51.666;6.634;2023-04-01T01:45:23;3.75;;;1.52;;
12958;SDS011;6544;51.666;6.634;2023-04-01T01:47:52;2.53;;;1.60;;
12958;SDS011;6544;51.666;6.634;2023-04-01T01:50:22;1.70;;;1.30;;
12958;SDS011;6544;51.666;6.634;2023-04-01T01:52:59;2.63;;;1.50;;
12958;SDS011;6544;51.666;6.634;2023-04-01T01:55:28;3.38;;;1.80;;
12958;SDS011;6544;51.666;6.634;2023-04-01T01:57:57;2.50;;;1.45;;
12958;SDS011;6544;51.666;6.634;2023-04-01T02:00:28;2.70;;;1.70;;
12958;SDS011;6544;51.666;6.634;2023-04-01T02:02:55;4.07;;;1.65;;
12958;SDS011;6544;51.666;6.634;2023-04-01T02:05:26;3.40;;;1.30;;
12958;SDS011;6544;51.666;6.634;2023-04-01T02:07:56;2.78;;;1.52;;
12958;SDS011;6544;51.666;6.634;2023-04-01T02:10:27;2.20;;;1.38;;
12958;SDS011;6544;51.666;6.634;2023-04-01T02:12:58;3.30;;;1.40;;
12958;SDS011;6544;51.666;6.634;2023-04-01T02:15:28;3.55;;;1.60;;
12958;SDS011;6544;51.666;6.634;2023-04-01T02:17:59;2.80;;;1.65;;
12958;SDS011;6544;51.666;6.634;2023-04-01T02:20:28;3.38;;;1.40;;
12958;SDS011;6544;51.666;6.634;2023-04-01T02:22:56;3.08;;;1.42;;
12958;SDS011;6544;51.666;6.634;2023-04-01T02:25:27;2.22;;;1.50;;
12958;SDS011;6544;51.666;6.634;2023-04-01T02:27:55;2.13;;;1.40;;
12958;SDS011;6544;51.666;6.634;2023-04-01T02:30:24;2.90;;;1.50;;
12958;SDS011;6544;51.666;6.634;2023-04-01T02:32:53;2.25;;;1.42;;
12958;SDS011;6544;51.666;6.634;2023-04-01T02:35:22;2.78;;;1.40;;
12958;SDS011;6544;51.666;6.634;2023-04-01T02:37:50;1.80;;;1.20;;
12958;SDS011;6544;51.666;6.634;2023-04-01T02:40:20;1.70;;;1.35;;
12958;SDS011;6544;51.666;6.634;2023-04-01T02:42:47;2.80;;;1.50;;
12958;SDS011;6544;51.666;6.634;2023-04-01T02:45:14;2.40;;;1.35;;
12958;SDS011;6544;51.666;6.634;2023-04-01T02:47:41;2.10;;;1.40;;
12958;SDS011;6544;51.666;6.634;2023-04-01T02:50:08;2.80;;;1.65;;
12958;SDS011;6544;51.666;6.634;2023-04-01T02:52:35;3.40;;;1.40;;
12958;SDS011;6544;51.666;6.634;2023-04-01T02:55:04;2.35;;;1.30;;
12958;SDS011;6544;51.666;6.634;2023-04-01T02:57:31;1.58;;;1.33;;
12958;SDS011;6544;51.666;6.634;2023-04-01T02:59:58;1.83;;;1.30;;
12958;SDS011;6544;51.666;6.634;2023-04-01T03:02:25;1.80;;;1.20;;
12958;SDS011;6544;51.666;6.634;2023-04-01T03:04:52;1.63;;;1.23;;
12958;SDS011;6544;51.666;6.634;2023-04-01T03:07:19;2.13;;;1.30;;
12958;SDS011;6544;51.666;6.634;2023-04-01T03:09:46;3.55;;;1.30;;
12958;SDS011;6544;51.666;6.634;2023-04-01T03:12:14;1.30;;;1.20;;
12958;SDS011;6544;51.666;6.634;2023-04-01T03:14:41;2.85;;;1.30;;
12958;SDS011;6544;51.666;6.634;2023-04-01T03:17:08;1.70;;;1.23;;
12958;SDS011;6544;51.666;6.634;2023-04-01T03:19:34;1.90;;;1.50;;
12958;SDS011;6544;51.666;6.634;2023-04-01T03:22:01;3.65;;;1.60;;
12958;SDS011;6544;51.666;6.634;2023-04-01T03:24:28;2.08;;;1.60;;
12958;SDS011;6544;51.666;6.634;2023-04-01T03:26:55;2.88;;;1.60;;
12958;SDS011;6544;51.666;6.634;2023-04-01T03:29:23;2.00;;;1.50;;
12958;SDS011;6544;51.666;6.634;2023-04-01T03:31:50;2.58;;;1.80;;
12958;SDS011;6544;51.666;6.634;2023-04-01T03:34:17;2.17;;;1.70;;
12958;SDS011;6544;51.666;6.634;2023-04-01T03:36:44;2.20;;;1.92;;
12958;SDS011;6544;51.666;6.634;2023-04-01T03:39:11;2.20;;;2.00;;
12958;SDS011;6544;51.666;6.634;2023-04-01T03:41:38;2.85;;;1.83;;
12958;SDS011;6544;51.666;6.634;2023-04-01T03:44:05;2.65;;;2.20;;
12958;SDS011;6544;51.666;6.634;2023-04-01T03:46:33;3.97;;;2.50;;
12958;SDS011;6544;51.666;6.634;2023-04-01T03:49:00;2.78;;;2.35;;
12958;SDS011;6544;51.666;6.634;2023-04-01T03:51:27;2.60;;;2.40;;
12958;SDS011;6544;51.666;6.634;2023-04-01T03:53:54;2.65;;;2.45;;
12958;SDS011;6544;51.666;6.634;2023-04-01T03:56:21;3.63;;;2.33;;
12958;SDS011;6544;51.666;6.634;2023-04-01T03:58:48;3.60;;;2.65;;
12958;SDS011;6544;51.666;6.634;2023-04-01T04:01:18;3.17;;;2.47;;
12958;SDS011;6544;51.666;6.634;2023-04-01T04:03:47;2.85;;;2.40;;
12958;SDS011;6544;51.666;6.634;2023-04-01T04:06:15;2.47;;;2.28;;
12958;SDS011;6544;51.666;6.634;2023-04-01T04:08:43;2.53;;;2.28;;
12958;SDS011;6544;51.666;6.634;2023-04-01T04:11:10;2.50;;;2.28;;
12958;SDS011;6544;51.666;6.634;2023-04-01T04:13:37;2.78;;;2.58;;
12958;SDS011;6544;51.666;6.634;2023-04-01T04:16:04;2.90;;;2.58;;
12958;SDS011;6544;51.666;6.634;2023-04-01T04:18:31;2.55;;;2.35;;
12958;SDS011;6544;51.666;6.634;2023-04-01T04:21:00;3.33;;;2.47;;
12958;SDS011;6544;51.666;6.634;2023-04-01T04:23:27;4.80;;;2.92;;
12958;SDS011;6544;51.666;6.634;2023-04-01T04:25:55;2.70;;;2.50;;
12958;SDS011;6544;51.666;6.634;2023-04-01T04:28:23;2.85;;;2.65;;
12958;SDS011;6544;51.666;6.634;2023-04-01T04:30:50;3.30;;;3.00;;
12958;SDS011;6544;51.666;6.634;2023-04-01T04:33:17;3.40;;;3.10;;
12958;SDS011;6544;51.666;6.634;2023-04-01T04:35:44;3.33;;;3.03;;
12958;SDS011;6544;51.666;6.634;2023-04-01T04:38:12;3.70;;;3.30;;
12958;SDS011;6544;51.666;6.634;2023-04-01T04:40:40;3.67;;;3.38;;
12958;SDS011;6544;51.666;6.634;2023-04-01T04:43:09;4.70;;;3.60;;
12958;SDS011;6544;51.666;6.634;2023-04-01T04:45:37;4.00;;;3.58;;
12958;SDS011;6544;51.666;6.634;2023-04-01T04:48:04;4.20;;;3.80;;
12958;SDS011;6544;51.666;6.634;2023-04-01T04:50:32;4.70;;;4.20;;
12958;SDS011;6544;51.666;6.634;2023-04-01T04:52:59;4.57;;;4.18;;
12958;SDS011;6544;51.666;6.634;2023-04-01T04:55:27;4.35;;;3.95;;
12958;SDS011;6544;51.666;6.634;2023-04-01T04:57:54;4.40;;;4.00;;
12958;SDS011;6544;51.666;6.634;2023-04-01T05:00:21;4.72;;;4.32;;
12958;SDS011;6544;51.666;6.634;2023-04-01T05:02:48;5.50;;;4.65;;
12958;SDS011;6544;51.666;6.634;2023-04-01T05:05:15;4.47;;;4.07;;
12958;SDS011;6544;51.666;6.634;2023-04-01T05:07:42;4.65;;;4.22;;
12958;SDS011;6544;51.666;6.634;2023-04-01T05:10:09;4.60;;;4.20;;
12958;SDS011;6544;51.666;6.634;2023-04-01T05:12:37;5.00;;;4.60;;
12958;SDS011;6544;51.666;6.634;2023-04-01T05:15:04;5.50;;;4.88;;
12958;SDS011;6544;51.666;6.634;2023-04-01T05:17:32;5.50;;;4.90;;
12958;SDS011;6544;51.666;6.634;2023-04-01T05:19:59;5.00;;;4.60;;
12958;SDS011;6544;51.666;6.634;2023-04-01T05:22:26;5.18;;;4.68;;
12958;SDS011;6544;51.666;6.634;2023-04-01T05:24:53;5.47;;;4.88;;
12958;SDS011;6544;51.666;6.634;2023-04-01T05:27:20;5.60;;;5.10;;
12958;SDS011;6544;51.666;6.634;2023-04-01T05:29:48;5.78;;;5.28;;
12958;SDS011;6544;51.666;6.634;2023-04-01T05:32:15;6.70;;;6.03;;
12958;SDS011;6544;51.666;6.634;2023-04-01T05:34:42;6.57;;;5.97;;
12958;SDS011;6544;51.666;6.634;2023-04-01T05:37:09;6.10;;;5.60;;
12958;SDS011;6544;51.666;6.634;2023-04-01T05:39:36;6.55;;;6.05;;
12958;SDS011;6544;51.666;6.634;2023-04-01T05:42:06;7.25;;;6.43;;
12958;SDS011;6544;51.666;6.634;2023-04-01T05:44:35;7.40;;;6.53;;
12958;SDS011;6544;51.666;6.634;2023-04-01T05:47:03;7.25;;;6.65;;
12958;SDS011;6544;51.666;6.634;2023-04-01T05:49:30;7.20;;;6.57;;
12958;SDS011;6544;51.666;6.634;2023-04-01T05:51:59;7.50;;;6.90;;
12958;SDS011;6544;51.666;6.634;2023-04-01T05:54:26;6.85;;;6.20;;
12958;SDS011;6544;51.666;6.634;2023-04-01T05:56:53;6.45;;;5.93;;
12958;SDS011;6544;51.666;6.634;2023-04-01T05:59:19;7.05;;;6.40;;
12958;SDS011;6544;51.666;6.634;2023-04-01T06:01:46;6.78;;;6.18;;
12958;SDS011;6544;51.666;6.634;2023-04-01T06:04:15;6.53;;;5.93;;
12958;SDS011;6544;51.666;6.634;2023-04-01T06:06:43;6.55;;;5.85;;
12958;SDS011;6544;51.666;6.634;2023-04-01T06:09:12;5.97;;;5.43;;
12958;SDS011;6544;51.666;6.634;2023-04-01T06:11:45;5.57;;;5.07;;
12958;SDS011;6544;51.666;6.634;2023-04-01T06:14:38;6.25;;;5.65;;
12958;SDS011;6544;51.666;6.634;2023-04-01T06:17:21;6.32;;;5.72;;
12958;SDS011;6544;51.666;6.634;2023-04-01T06:19:58;5.78;;;5.22;;
12958;SDS011;6544;51.666;6.634;2023-04-01T06:22:42;6.22;;;5.63;;
12958;SDS011;6544;51.666;6.634;2023-04-01T06:25:38;6.13;;;5.53;;
12958;SDS011;6544;51.666;6.634;2023-04-01T06:28:36;7.30;;;5.93;;
12958;SDS011;6544;51.666;6.634;2023-04-01T06:31:16;5.82;;;5.22;;
12958;SDS011;6544;51.666;6.634;2023-04-01T06:33:55;6.30;;;5.70;;
12958;SDS011;6544;51.666;6.634;2023-04-01T06:36:41;6.85;;;6.18;;
12958;SDS011;6544;51.666;6.634;2023-04-01T06:39:28;6.38;;;5.78;;
12958;SDS011;6544;51.666;6.634;2023-04-01T06:42:38;7.45;;;5.53;;
12958;SDS011;6544;51.666;6.634;2023-04-01T06:45:16;7.05;;;5.45;;
12958;SDS011;6544;51.666;6.634;2023-04-01T06:47:57;7.55;;;5.50;;
12958;SDS011;6544;51.666;6.634;2023-04-01T06:50:45;5.25;;;4.75;;
12958;SDS011;6544;51.666;6.634;2023-04-01T06:53:23;5.65;;;5.05;;
12958;SDS011;6544;51.666;6.634;2023-04-01T06:55:59;6.35;;;5.50;;
12958;SDS011;6544;51.666;6.634;2023-04-01T06:58:34;5.10;;;4.60;;
12958;SDS011;6544;51.666;6.634;2023-04-01T07:01:04;5.60;;;5.10;;
12958;SDS011;6544;51.666;6.634;2023-04-01T07:03:35;5.47;;;4.90;;
12958;SDS011;6544;51.666;6.634;2023-04-01T07:06:08;5.32;;;4.82;;
12958;SDS011;6544;51.666;6.634;2023-04-01T07:08:41;5.70;;;5.15;;
12958;SDS011;6544;51.666;6.634;2023-04-01T07:11:10;5.47;;;4.97;;
12958;SDS011;6544;51.666;6.634;2023-04-01T07:13:43;6.63;;;5.25;;
12958;SDS011;6544;51.666;6.634;2023-04-01T07:16:15;7.05;;;5.63;;
12958;SDS011;6544;51.666;6.634;2023-04-01T07:18:47;7.53;;;5.88;;
12958;SDS011;6544;51.666;6.634;2023-04-01T07:21:20;7.40;;;6.15;;
12958;SDS011;6544;51.666;6.634;2023-04-01T07:23:53;7.70;;;6.20;;
12958;SDS011;6544;51.666;6.634;2023-04-01T07:26:24;6.90;;;6.20;;
12958;SDS011;6544;51.666;6.634;2023-04-01T07:28:52;7.32;;;6.13;;
12958;SDS011;6544;51.666;6.634;2023-04-01T07:31:23;7.15;;;6.45;;
12958;SDS011;6544;51.666;6.634;2023-04-01T07:34:00;6.97;;;6.28;;
12958;SDS011;6544;51.666;6.634;2023-04-01T07:36:32;6.78;;;5.68;;
12958;SDS011;6544;51.666;6.634;2023-04-01T07:39:08;7.20;;;6.50;;
12958;SDS011;6544;51.666;6.634;2023-04-01T07:41:47;8.27;;;7.22;;
12958;SDS011;6544;51.666;6.634;2023-04-01T07:44:19;7.18;;;6.20;;
12958;SDS011;6544;51.666;6.634;2023-04-01T07:47:07;9.05;;;6.60;;
12958;SDS011;6544;51.666;6.634;2023-04-01T07:49:47;8.75;;;6.95;;
12958;SDS011;6544;51.666;6.634;2023-04-01T07:52:26;8.70;;;7.15;;
12958;SDS011;6544;51.666;6.634;2023-04-01T07:55:04;8.75;;;7.68;;
12958;SDS011;6544;51.666;6.634;2023-04-01T07:57:38;9.57;;;8.07;;
12958;SDS011;6544;51.666;6.634;2023-04-01T08:00:13;13.00;;;9.63;;
12958;SDS011;6544;51.666;6.634;2023-04-01T08:02:49;11.68;;;9.77;;
12958;SDS011;6544;51.666;6.634;2023-04-01T08:05:33;12.75;;;9.77;;
12958;SDS011;6544;51.666;6.634;2023-04-01T08:08:09;11.63;;;9.80;;
12958;SDS011;6544;51.666;6.634;2023-04-01T08:10:44;12.25;;;9.75;;
12958;SDS011;6544;51.666;6.634;2023-04-01T08:13:18;13.98;;;10.10;;
12958;SDS011;6544;51.666;6.634;2023-04-01T08:15:53;12.00;;;9.75;;
12958;SDS011;6544;51.666;6.634;2023-04-01T08:18:27;10.57;;;9.18;;
12958;SDS011;6544;51.666;6.634;2023-04-01T08:21:05;11.13;;;9.48;;
12958;SDS011;6544;51.666;6.634;2023-04-01T08:23:37;11.40;;;9.30;;
12958;SDS011;6544;51.666;6.634;2023-04-01T08:26:12;14.57;;;9.63;;
12958;SDS011;6544;51.666;6.634;2023-04-01T08:28:46;11.70;;;9.20;;
12958;SDS011;6544;51.666;6.634;2023-04-01T08:31:18;10.80;;;9.15;;
12958;SDS011;6544;51.666;6.634;2023-04-01T08:33:50;9.13;;;8.10;;
12958;SDS011;6544;51.666;6.634;2023-04-01T08:36:21;10.68;;;8.50;;
12958;SDS011;6544;51.666;6.634;2023-04-01T08:38:51;10.38;;;8.65;;
12958;SDS011;6544;51.666;6.634;2023-04-01T08:41:45;9.95;;;8.80;;
12958;SDS011;6544;51.666;6.634;2023-04-01T08:44:40;11.35;;;9.63;;
12958;SDS011;6544;51.666;6.634;2023-04-01T08:50:39;12.60;;;9.40;;
12958;SDS011;6544;51.666;6.634;2023-04-01T08:53:32;11.45;;;9.68;;
12958;SDS011;6544;51.666;6.634;2023-04-01T08:56:18;10.30;;;9.18;;
12958;SDS011;6544;51.666;6.634;2023-04-01T08:58:54;14.15;;;9.35;;
12958;SDS011;6544;51.666;6.634;2023-04-01T09:01:34;12.25;;;9.32;;
12958;SDS011;6544;51.666;6.634;2023-04-01T09:04:31;10.65;;;8.13;;
12958;SDS011;6544;51.666;6.634;2023-04-01T09:07:20;10.68;;;8.30;;
12958;SDS011;6544;51.666;6.634;2023-04-01T09:10:22;10.23;;;7.82;;
12958;SDS011;6544;51.666;6.634;2023-04-01T09:13:13;10.07;;;7.53;;
12958;SDS011;6544;51.666;6.634;2023-04-01T09:21:52;7.00;;;6.30;;
12958;SDS011;6544;51.666;6.634;2023-04-01T09:24:32;9.70;;;7.22;;
12958;SDS011;6544;51.666;6.634;2023-04-01T09:27:19;9.90;;;6.55;;
12958;SDS011;6544;51.666;6.634;2023-04-01T09:33:06;7.60;;;6.00;;
12958;SDS011;6544;51.666;6.634;2023-04-01T09:36:12;8.07;;;6.57;;
12958;SDS011;6544;51.666;6.634;2023-04-01T09:38:56;7.57;;;5.75;;
12958;SDS011;6544;51.666;6.634;2023-04-01T09:41:29;7.22;;;5.72;;
12958;SDS011;6544;51.666;6.634;2023-04-01T09:44:01;6.30;;;5.40;;
12958;SDS011;6544;51.666;6.634;2023-04-01T09:46:36;6.50;;;5.20;;
12958;SDS011;6544;51.666;6.634;2023-04-01T09:49:18;6.70;;;5.28;;
12958;SDS011;6544;51.666;6.634;2023-04-01T09:52:06;6.50;;;5.10;;
12958;SDS011;6544;51.666;6.634;2023-04-01T09:54:54;7.32;;;5.30;;
12958;SDS011;6544;51.666;6.634;2023-04-01T10:00:33;6.93;;;5.25;;
12958;SDS011;6544;51.666;6.634;2023-04-01T10:03:32;7.05;;;5.20;;
12958;SDS011;6544;51.666;6.634;2023-04-01T10:06:27;6.75;;;5.30;;
12958;SDS011;6544;51.666;6.634;2023-04-01T10:09:23;6.28;;;5.32;;
12958;SDS011;6544;51.666;6.634;2023-04-01T10:12:22;6.32;;;5.20;;
12958;SDS011;6544;51.666;6.634;2023-04-01T10:15:10;8.45;;;5.40;;
12958;SDS011;6544;51.666;6.634;2023-04-01T10:24:14;6.05;;;5.00;;
12958;SDS011;6544;51.666;6.634;2023-04-01T10:27:06;7.07;;;5.22;;
12958;SDS011;6544;51.666;6.634;2023-04-01T10:29:59;8.55;;;4.97;;
12958;SDS011;6544;51.666;6.634;2023-04-01T10:38:54;6.38;;;5.00;;
12958;SDS011;6544;51.666;6.634;2023-04-01T10:53:56;7.35;;;6.10;;
12958;SDS011;6544;51.666;6.634;2023-04-01T10:56:46;7.40;;;5.80;;
12958;SDS011;6544;51.666;6.634;2023-04-01T10:59:41;7.82;;;5.85;;
12958;SDS011;6544;51.666;6.634;2023-04-01T11:02:54;7.95;;;5.97;;
12958;SDS011;6544;51.666;6.634;2023-04-01T11:08:56;8.55;;;6.25;;
12958;SDS011;6544;51.666;6.634;2023-04-01T11:15:06;9.20;;;6.93;;
12958;SDS011;6544;51.666;6.634;2023-04-01T11:27:49;12.18;;;8.10;;
12958;SDS011;6544;51.666;6.634;2023-04-01T11:30:28;10.65;;;8.02;;
12958;SDS011;6544;51.666;6.634;2023-04-01T11:33:20;10.98;;;7.85;;
12958;SDS011;6544;51.666;6.634;2023-04-01T11:35:55;12.80;;;8.52;;
12958;SDS011;6544;51.666;6.634;2023-04-01T11:38:35;12.73;;;8.90;;
12958;SDS011;6544;51.666;6.634;2023-04-01T11:41:30;11.25;;;8.55;;
12958;SDS011;6544;51.666;6.634;2023-04-01T11:44:09;13.10;;;8.60;;
12958;SDS011;6544;51.666;6.634;2023-04-01T11:46:46;12.70;;;8.68;;
12958;SDS011;6544;51.666;6.634;2023-04-01T11:49:35;10.27;;;8.10;;
12958;SDS011;6544;51.666;6.634;2023-04-01T11:52:14;11.20;;;7.88;;
12958;SDS011;6544;51.666;6.634;2023-04-01T11:55:15;10.85;;;7.55;;
12958;SDS011;6544;51.666;6.634;2023-04-01T11:58:01;10.10;;;7.07;;
12958;SDS011;6544;51.666;6.634;2023-04-01T12:00:57;9.82;;;7.63;;
12958;SDS011;6544;51.666;6.634;2023-04-01T12:06:48;10.02;;;7.10;;
12958;SDS011;6544;51.666;6.634;2023-04-01T12:12:52;10.95;;;7.07;;
12958;SDS011;6544;51.666;6.634;2023-04-01T12:18:52;7.30;;;6.30;;
12958;SDS011;6544;51.666;6.634;2023-04-01T12:21:32;9.75;;;6.70;;
12958;SDS011;6544;51.666;6.634;2023-04-01T12:24:19;8.68;;;6.47;;
12958;SDS011;6544;51.666;6.634;2023-04-01T12:33:47;9.45;;;6.68;;
12958;SDS011;6544;51.666;6.634;2023-04-01T12:39:33;11.40;;;7.75;;
12958;SDS011;6544;51.666;6.634;2023-04-01T12:42:23;9.18;;;7.50;;
12958;SDS011;6544;51.666;6.634;2023-04-01T12:45:07;8.40;;;7.15;;
12958;SDS011;6544;51.666;6.634;2023-04-01T12:47:50;10.25;;;7.25;;
12958;SDS011;6544;51.666;6.634;2023-04-01T12:53:27;9.18;;;7.38;;
12958;SDS011;6544;51.666;6.634;2023-04-01T12:56:09;10.02;;;7.60;;
12958;SDS011;6544;51.666;6.634;2023-04-01T13:01:42;11.05;;;7.28;;
12958;SDS011;6544;51.666;6.634;2023-04-01T13:10:44;9.63;;;7.53;;
12958;SDS011;6544;51.666;6.634;2023-04-01T13:13:46;9.18;;;7.43;;
12958;SDS011;6544;51.666;6.634;2023-04-01T13:16:29;9.32;;;7.05;;
12958;SDS011;6544;51.666;6.634;2023-04-01T13:19:03;9.00;;;6.57;;
12958;SDS011;6544;51.666;6.634;2023-04-01T13:21:38;8.13;;;6.47;;
12958;SDS011;6544;51.666;6.634;2023-04-01T13:24:34;7.97;;;6.70;;
12958;SDS011;6544;51.666;6.634;2023-04-01T13:27:09;8.38;;;7.00;;
12958;SDS011;6544;51.666;6.634;2023-04-01T13:29:45;9.20;;;7.38;;
12958;SDS011;6544;51.666;6.634;2023-04-01T13:32:23;8.27;;;7.15;;
12958;SDS011;6544;51.666;6.634;2023-04-01T13:35:01;8.25;;;7.15;;
12958;SDS011;6544;51.666;6.634;2023-04-01T13:37:43;8.07;;;7.10;;
12958;SDS011;6544;51.666;6.634;2023-04-01T13:43:10;10.20;;;8.32;;
12958;SDS011;6544;51.666;6.634;2023-04-01T13:45:46;10.07;;;8.13;;
12958;SDS011;6544;51.666;6.634;2023-04-01T13:48:36;9.68;;;8.00;;
12958;SDS011;6544;51.666;6.634;2023-04-01T13:51:29;10.20;;;7.53;;
12958;SDS011;6544;51.666;6.634;2023-04-01T13:54:18;11.30;;;8.13;;
12958;SDS011;6544;51.666;6.634;2023-04-01T13:57:15;11.60;;;8.50;;
12958;SDS011;6544;51.666;6.634;2023-04-01T13:59:57;12.80;;;9.05;;
12958;SDS011;6544;51.666;6.634;2023-04-01T14:02:47;14.45;;;9.48;;
12958;SDS011;6544;51.666;6.634;2023-04-01T14:08:17;10.07;;;8.65;;
12958;SDS011;6544;51.666;6.634;2023-04-01T14:11:09;11.25;;;7.78;;
12958;SDS011;6544;51.666;6.634;2023-04-01T14:13:43;9.82;;;8.57;;
12958;SDS011;6544;51.666;6.634;2023-04-01T14:19:26;10.40;;;8.88;;
12958;SDS011;6544;51.666;6.634;2023-04-01T14:22:09;11.25;;;8.18;;
12958;SDS011;6544;51.666;6.634;2023-04-01T14:24:52;9.38;;;7.88;;
12958;SDS011;6544;51.666;6.634;2023-04-01T14:27:49;10.98;;;8.60;;
12958;SDS011;6544;51.666;6.634;2023-04-01T14:30:32;9.40;;;8.23;;
12958;SDS011;6544;51.666;6.634;2023-04-01T14:33:06;11.38;;;8.10;;
12958;SDS011;6544;51.666;6.634;2023-04-01T14:35:49;10.02;;;7.70;;
12958;SDS011;6544;51.666;6.634;2023-04-01T14:38:36;7.97;;;6.90;;
12958;SDS011;6544;51.666;6.634;2023-04-01T14:41:16;7.40;;;6.60;;
12958;SDS011;6544;51.666;6.634;2023-04-01T14:43:54;7.63;;;6.35;;
12958;SDS011;6544;51.666;6.634;2023-04-01T14:46:52;6.28;;;5.60;;
12958;SDS011;6544;51.666;6.634;2023-04-01T14:49:41;6.15;;;5.55;;
12958;SDS011;6544;51.666;6.634;2023-04-01T14:52:11;7.05;;;5.50;;
12958;SDS011;6544;51.666;6.634;2023-04-01T14:54:42;7.53;;;5.47;;
12958;SDS011;6544;51.666;6.634;2023-04-01T14:57:13;7.05;;;5.68;;
12958;SDS011;6544;51.666;6.634;2023-04-01T14:59:45;7.10;;;6.35;;
12958;SDS011;6544;51.666;6.634;2023-04-01T15:02:24;7.05;;;6.32;;
12958;SDS011;6544;51.666;6.634;2023-04-01T15:05:27;8.60;;;6.63;;
12958;SDS011;6544;51.666;6.634;2023-04-01T15:08:02;9.00;;;5.93;;
12958;SDS011;6544;51.666;6.634;2023-04-01T15:10:41;7.40;;;6.03;;
12958;SDS011;6544;51.666;6.634;2023-04-01T15:13:24;7.82;;;6.15;;
12958;SDS011;6544;51.666;6.634;2023-04-01T15:16:14;6.80;;;6.10;;
12958;SDS011;6544;51.666;6.634;2023-04-01T15:18:49;8.77;;;7.40;;
12958;SDS011;6544;51.666;6.634;2023-04-01T15:21:32;8.35;;;6.90;;
12958;SDS011;6544;51.666;6.634;2023-04-01T15:24:13;8.57;;;7.00;;
12958;SDS011;6544;51.666;6.634;2023-04-01T15:29:58;8.50;;;7.15;;
12958;SDS011;6544;51.666;6.634;2023-04-01T15:32:41;9.23;;;7.45;;
12958;SDS011;6544;51.666;6.634;2023-04-01T15:35:21;8.25;;;6.78;;
12958;SDS011;6544;51.666;6.634;2023-04-01T15:38:02;8.23;;;6.55;;
12958;SDS011;6544;51.666;6.634;2023-04-01T15:40:38;8.80;;;6.78;;
12958;SDS011;6544;51.666;6.634;2023-04-01T15:43:15;8.18;;;7.32;;
12958;SDS011;6544;51.666;6.634;2023-04-01T15:45:54;9.68;;;7.70;;
12958;SDS011;6544;51.666;6.634;2023-04-01T15:48:38;8.25;;;7.03;;
12958;SDS011;6544;51.666;6.634;2023-04-01T15:54:25;8.13;;;7.28;;
12958;SDS011;6544;51.666;6.634;2023-04-01T15:57:10;7.80;;;6.65;;
12958;SDS011;6544;51.666;6.634;2023-04-01T15:59:55;7.18;;;6.20;;
12958;SDS011;6544;51.666;6.634;2023-04-01T16:02:43;9.20;;;7.57;;
12958;SDS011;6544;51.666;6.634;2023-04-01T16:05:24;8.45;;;6.38;;
12958;SDS011;6544;51.666;6.634;2023-04-01T16:08:09;7.88;;;6.05;;
12958;SDS011;6544;51.666;6.634;2023-04-01T16:10:55;6.38;;;5.75;;
12958;SDS011;6544;51.666;6.634;2023-04-01T16:13:40;6.15;;;5.55;;
12958;SDS011;6544;51.666;6.634;2023-04-01T16:16:17;7.97;;;5.82;;
12958;SDS011;6544;51.666;6.634;2023-04-01T16:18:55;5.80;;;5.20;;
12958;SDS011;6544;51.666;6.634;2023-04-01T16:21:35;5.70;;;5.10;;
12958;SDS011;6544;51.666;6.634;2023-04-01T16:24:12;6.07;;;5.20;;
12958;SDS011;6544;51.666;6.634;2023-04-01T16:26:44;6.18;;;5.57;;
12958;SDS011;6544;51.666;6.634;2023-04-01T16:29:19;7.93;;;5.78;;
12958;SDS011;6544;51.666;6.634;2023-04-01T16:31:54;7.43;;;6.60;;
12958;SDS011;6544;51.666;6.634;2023-04-01T16:34:41;6.43;;;5.40;;
12958;SDS011;6544;51.666;6.634;2023-04-01T16:37:15;8.07;;;5.85;;
12958;SDS011;6544;51.666;6.634;2023-04-01T16:39:47;5.88;;;5.22;;
12958;SDS011;6544;51.666;6.634;2023-04-01T16:42:23;7.00;;;5.82;;
12958;SDS011;6544;51.666;6.634;2023-04-01T16:45:02;5.47;;;4.97;;
12958;SDS011;6544;51.666;6.634;2023-04-01T16:47:45;6.00;;;5.40;;
12958;SDS011;6544;51.666;6.634;2023-04-01T16:50:15;5.93;;;5.32;;
12958;SDS011;6544;51.666;6.634;2023-04-01T16:52:58;6.00;;;5.35;;
12958;SDS011;6544;51.666;6.634;2023-04-01T16:55:34;5.28;;;4.78;;
12958;SDS011;6544;51.666;6.634;2023-04-01T16:58:07;6.00;;;4.93;;
12958;SDS011;6544;51.666;6.634;2023-04-01T17:00:39;5.88;;;5.28;;
12958;SDS011;6544;51.666;6.634;2023-04-01T17:03:15;5.20;;;4.70;;
12958;SDS011;6544;51.666;6.634;2023-04-01T17:05:49;5.70;;;4.80;;
12958;SDS011;6544;51.666;6.634;2023-04-01T17:11:26;5.50;;;4.95;;
12958;SDS011;6544;51.666;6.634;2023-04-01T17:13:58;6.55;;;5.07;;
12958;SDS011;6544;51.666;6.634;2023-04-01T17:16:42;5.65;;;5.15;;
12958;SDS011;6544;51.666;6.634;2023-04-01T17:19:28;6.35;;;5.68;;
12958;SDS011;6544;51.666;6.634;2023-04-01T17:22:07;6.28;;;5.68;;
12958;SDS011;6544;51.666;6.634;2023-04-01T17:24:49;6.63;;;5.80;;
12958;SDS011;6544;51.666;6.634;2023-04-01T17:27:29;6.55;;;5.82;;
12958;SDS011;6544;51.666;6.634;2023-04-01T17:32:57;7.43;;;6.07;;
12958;SDS011;6544;51.666;6.634;2023-04-01T17:35:38;6.45;;;5.55;;
12958;SDS011;6544;51.666;6.634;2023-04-01T17:38:17;6.07;;;5.00;;
12958;SDS011;6544;51.666;6.634;2023-04-01T17:40:50;5.93;;;4.35;;
12958;SDS011;6544;51.666;6.634;2023-04-01T17:43:28;5.32;;;4.57;;
12958;SDS011;6544;51.666;6.634;2023-04-01T17:46:08;5.65;;;5.05;;